Jork Reliance — V2CL2 — position and weather

sailwx.info

Track history (hours):
 
Tides and Currents Weather Stations Pressure Air Temp Water Temp Dewpoint Dewpoint Depression Visibility Wind Speed Wind Dir Waves Ship Positions

Jork Reliance

Last reported at 2014-Oct-31 23:28 UTC. Time now 2014-Nov-01 00:23 UTC.
Position N 51°19' E 004°19'.

Length 141 m; draft 6.4 m.

Type: Ship (hazmat cat A). MMSI: 305033000.

Date/timePositionNaut miles runAvg speedWind from/ knotsBaromVisibWave heightAir tempDewpointWater temp
2014-Oct-31 23:28N 51°19' E 004°19'1 1.6
2014-Oct-31 22:33N 51°21' E 004°18'1 1.2
2014-Oct-31 21:33N 51°21' E 004°16'7 7.1
2014-Oct-31 20:33N 51°22' E 004°05'6 6.4
2014-Oct-31 19:34N 51°22' E 003°55'9 9.4
2014-Oct-31 18:33N 51°26' E 003°41'9 9.2
2014-Oct-31 17:33N 51°25' E 003°26'1313.2
2014-Oct-31 16:33N 51°24' E 003°05'1413.2
2014-Oct-31 15:32N 51°22' E 002°44'6 5.8
2014-Oct-31 14:26N 51°25' E 002°35'0 0.0
2014-Oct-31 13:32N 51°25' E 002°35'0 0.0
2014-Oct-31 12:32N 51°25' E 002°35'0 0.1
2014-Oct-31 11:32N 51°25' E 002°35'0 0.1
2014-Oct-31 10:14N 51°25' E 002°35'0 0.0
2014-Oct-31 08:17N 51°25' E 002°35'0 0.0
2014-Oct-31 07:11N 51°25' E 002°35'0 0.0
2014-Oct-31 06:32N 51°25' E 002°35'0 0.0
2014-Oct-31 04:11N 51°25' E 002°35'0 0.0
2014-Oct-31 03:26N 51°25' E 002°35'0 0.3
2014-Oct-31 02:33N 51°25' E 002°34'1313.2
2014-Oct-31 01:34N 51°18' E 002°17'1413.6
2014-Oct-31 00:34N 51°10' E 001°58'1111.4
2014-Oct-30 23:33N 51°01' E 001°47'1111.3
2014-Oct-30 22:34N 51°03' E 002°05'4 4.2
2014-Oct-30 21:31N 51°01' E 002°11'0 0.0
2014-Oct-30 20:31N 51°01' E 002°11'0 0.0
2014-Oct-30 19:31N 51°01' E 002°11'0 0.0
2014-Oct-30 18:22N 51°01' E 002°11'0 0.0
2014-Oct-30 17:33N 51°01' E 002°11'0 0.4
2014-Oct-30 16:33N 51°01' E 002°11'1211.9
2014-Oct-30 15:34N 51°03' E 001°52'8 7.6
2014-Oct-30 14:34N 50°60' E 001°41'10 9.8
2014-Oct-30 13:34N 50°54' E 001°29'1211.5
2014-Oct-30 12:33N 50°43' E 001°21'1716.9
2014-Oct-30 11:33N 50°32' E 001°01'1716.5
2014-Oct-30 10:32N 50°26' E 000°36'4815.6
2014-Oct-30 07:27N 50°12' W 000°36'1612.4
2014-Oct-30 06:09N 50°08' W 001°00'3211.1
2014-Oct-30 03:14N 49°59' W 001°49'2913.7
2014-Oct-30 01:07N 49°52' W 002°33'1314.0
2014-Oct-30 00:10N 49°48' W 002°52'3114.5
2014-Oct-29 22:03N 49°33' W 003°34'1215.1
2014-Oct-29 21:15N 49°27' W 003°50'4515.4
2014-Oct-29 18:20N 49°04' W 004°49'1515.2
2014-Oct-29 17:23N 48°57' W 005°08'4213.0
2014-Oct-29 14:08N 48°22' W 005°44'814.7
2014-Oct-29 13:33N 48°14' W 005°39'1414.5
2014-Oct-29 12:33N 48°01' W 005°31'1414.2
2014-Oct-29 11:33N 47°49' W 005°17'1414.4
2014-Oct-29 10:33N 47°39' W 005°02'1414.3
2014-Oct-29 09:33N 47°29' W 004°47'1615.5
2014-Oct-29 08:33N 47°18' W 004°31'1615.7
2014-Oct-29 07:33N 47°07' W 004°14'1615.9
2014-Oct-29 06:33N 46°56' W 003°57'1615.9
2014-Oct-29 05:33N 46°45' W 003°41'1616.0
2014-Oct-29 04:33N 46°34' W 003°24'1616.0
2014-Oct-29 03:33N 46°23' W 003°07'1716.0
2014-Oct-29 02:31N 46°12' W 002°49'1616.1
2014-Oct-29 01:33N 46°01' W 002°33'1616.1
2014-Oct-29 00:33N 45°50' W 002°16'1616.1
2014-Oct-28 23:33N 45°44' W 001°55'1716.4
2014-Oct-28 22:32N 45°38' W 001°33'22 0.7
2014-Oct-27 14:19N 45°34' W 001°02'1114.5
2014-Oct-27 13:32N 45°38' W 001°17'1110.8
2014-Oct-27 12:33N 45°38' W 001°32'7 6.8
2014-Oct-27 11:28N 45°40' W 001°42'1 0.8
2014-Oct-27 10:31N 45°40' W 001°41'9 9.4
2014-Oct-27 09:33N 45°43' W 001°53'9 8.6
2014-Oct-27 08:33N 45°46' W 002°05'8 7.9
2014-Oct-27 07:33N 45°49' W 002°15'1313.2
2014-Oct-27 06:33N 45°58' W 002°29'1110.7
2014-Oct-27 05:33N 46°06' W 002°40'1110.9
2014-Oct-27 04:33N 46°13' W 002°52'1110.9
2014-Oct-27 03:33N 46°21' W 003°03'1212.2
2014-Oct-27 02:33N 46°29' W 003°16'1211.6
2014-Oct-27 01:32N 46°37' W 003°28'1212.3
2014-Oct-27 00:34N 46°46' W 003°41'7311.7
2014-Oct-26 18:20N 47°36' W 004°59'1211.8
2014-Oct-26 17:20N 47°44' W 005°11'147 9.9
2014-Oct-26 02:28N 49°50' W 003°15'12912.9
2014-Oct-25 16:26N 50°30' W 000°04'1313.9
2014-Oct-25 15:29N 50°34' E 000°16'1313.5
2014-Oct-25 14:33N 50°38' E 000°35'1312.7
2014-Oct-25 13:33N 50°45' E 000°51'1211.4
2014-Oct-25 12:33N 50°52' E 001°06'1110.7
2014-Oct-25 11:33N 50°59' E 001°18'1111.5
2014-Oct-25 10:34N 51°06' E 001°32'1413.7
2014-Oct-25 09:33N 51°15' E 001°49'1312.8
2014-Oct-25 08:33N 51°24' E 002°04'1212.3
2014-Oct-25 07:33N 51°21' E 002°24'1413.6
2014-Oct-25 06:32N 51°22' E 002°46'1616.1
2014-Oct-25 05:34N 51°24' E 003°11'1716.7
2014-Oct-25 04:34N 51°26' E 003°37'1312.8
2014-Oct-25 03:33N 51°25' E 003°58'1110.9
2014-Oct-25 02:34N 51°21' E 004°14'2 1.9
2014-Oct-25 01:34N 51°21' E 004°17'2 2.1
2014-Oct-25 00:32N 51°20' E 004°20'0 0.0
2014-Oct-24 23:32N 51°20' E 004°20'0 0.0
2014-Oct-24 22:26N 51°20' E 004°20'0 0.0
2014-Oct-24 21:32N 51°20' E 004°20'0 0.0
2014-Oct-24 20:32N 51°20' E 004°20'0 0.0
2014-Oct-24 19:32N 51°20' E 004°20'0 0.0
2014-Oct-24 18:29N 51°20' E 004°20'0 0.0
2014-Oct-24 17:29N 51°20' E 004°20'0 0.0
2014-Oct-24 16:32N 51°20' E 004°20'0 0.0
2014-Oct-24 15:32N 51°20' E 004°20'0 0.0
2014-Oct-24 14:29N 51°20' E 004°20'0 0.0
2014-Oct-24 13:32N 51°20' E 004°20'0 0.0
2014-Oct-24 12:32N 51°20' E 004°20'0 0.0
2014-Oct-24 11:29N 51°20' E 004°20'0 0.0
2014-Oct-24 10:32N 51°20' E 004°20'0 0.0
2014-Oct-24 09:30N 51°20' E 004°20'2 2.1
2014-Oct-24 08:34N 51°21' E 004°17'0 0.0
2014-Oct-24 07:34N 51°21' E 004°17'1 0.6
2014-Oct-24 06:33N 51°21' E 004°16'5 4.6
2014-Oct-24 05:34N 51°23' E 004°10'8 7.7
2014-Oct-24 04:33N 51°25' E 003°58'9 9.3
2014-Oct-24 03:33N 51°23' E 003°43'9 9.0
2014-Oct-24 02:33N 51°25' E 003°29'1313.2
2014-Oct-24 01:33N 51°24' E 003°08'1615.7
2014-Oct-24 00:33N 51°22' E 002°43'8 8.5
2014-Oct-23 23:33N 51°22' E 002°29'1313.4
2014-Oct-23 22:34N 51°15' E 002°10'1716.7
2014-Oct-23 21:34N 51°06' E 001°48'1211.5
2014-Oct-23 20:34N 51°03' E 002°06'4 4.0
2014-Oct-23 19:33N 51°01' E 002°11'0 0.0
2014-Oct-23 18:30N 51°01' E 002°11'0 0.0
2014-Oct-23 17:30N 51°01' E 002°11'0 0.0
2014-Oct-23 16:27N 51°01' E 002°11'0 0.0
2014-Oct-23 15:30N 51°01' E 002°11'0 0.0
2014-Oct-23 14:27N 51°01' E 002°11'0 0.0
2014-Oct-23 13:30N 51°01' E 002°11'0 0.0
2014-Oct-23 12:27N 51°01' E 002°11'0 0.0
2014-Oct-23 11:28N 51°01' E 002°11'4 4.0
2014-Oct-23 10:34N 51°03' E 002°07'1514.7
2014-Oct-23 09:33N 51°01' E 001°44'1414.4
2014-Oct-23 08:33N 50°50' E 001°28'2914.2
2014-Oct-23 06:31N 50°30' E 000°55'1414.7
2014-Oct-23 05:32N 50°25' E 000°34'7214.5
2014-Oct-23 00:32N 50°05' W 001°15'1514.0
2014-Oct-22 23:29N 50°01' W 001°37'1314.4
2014-Oct-22 22:33N 49°58' W 001°57'1615.7
2014-Oct-22 21:31N 49°54' W 002°22'3216.5
2014-Oct-22 19:33N 49°43' W 003°09'  
Track history (hours):
 
Tides and Currents Weather Stations Pressure Air Temp Water Temp Dewpoint Dewpoint Depression Visibility Wind Speed Wind Dir Waves Ship Positions

Jork Reliance

Last reported at 2014-Oct-31 23:28 UTC. Time now 2014-Nov-01 00:23 UTC.
Position N 51°19' E 004°19'.

Length 141 m; draft 6.4 m.

Type: Ship (hazmat cat A). MMSI: 305033000.

Date/timePositionNaut miles runAvg speedWind from/ knotsBaromVisibWave heightAir tempDewpointWater temp
2014-Oct-31 23:28N 51°19' E 004°19'1 1.6
2014-Oct-31 22:33N 51°21' E 004°18'1 1.2
2014-Oct-31 21:33N 51°21' E 004°16'7 7.1
2014-Oct-31 20:33N 51°22' E 004°05'6 6.4
2014-Oct-31 19:34N 51°22' E 003°55'9 9.4
2014-Oct-31 18:33N 51°26' E 003°41'9 9.2
2014-Oct-31 17:33N 51°25' E 003°26'1313.2
2014-Oct-31 16:33N 51°24' E 003°05'1413.2
2014-Oct-31 15:32N 51°22' E 002°44'6 5.8
2014-Oct-31 14:26N 51°25' E 002°35'0 0.0
2014-Oct-31 13:32N 51°25' E 002°35'0 0.0
2014-Oct-31 12:32N 51°25' E 002°35'0 0.1
2014-Oct-31 11:32N 51°25' E 002°35'0 0.1
2014-Oct-31 10:14N 51°25' E 002°35'0 0.0
2014-Oct-31 08:17N 51°25' E 002°35'0 0.0
2014-Oct-31 07:11N 51°25' E 002°35'0 0.0
2014-Oct-31 06:32N 51°25' E 002°35'0 0.0
2014-Oct-31 04:11N 51°25' E 002°35'0 0.0
2014-Oct-31 03:26N 51°25' E 002°35'0 0.3
2014-Oct-31 02:33N 51°25' E 002°34'1313.2
2014-Oct-31 01:34N 51°18' E 002°17'1413.6
2014-Oct-31 00:34N 51°10' E 001°58'1111.4
2014-Oct-30 23:33N 51°01' E 001°47'1111.3
2014-Oct-30 22:34N 51°03' E 002°05'4 4.2
2014-Oct-30 21:31N 51°01' E 002°11'0 0.0
2014-Oct-30 20:31N 51°01' E 002°11'0 0.0
2014-Oct-30 19:31N 51°01' E 002°11'0 0.0
2014-Oct-30 18:22N 51°01' E 002°11'0 0.0
2014-Oct-30 17:33N 51°01' E 002°11'0 0.4
2014-Oct-30 16:33N 51°01' E 002°11'1211.9
2014-Oct-30 15:34N 51°03' E 001°52'8 7.6
2014-Oct-30 14:34N 50°60' E 001°41'10 9.8
2014-Oct-30 13:34N 50°54' E 001°29'1211.5
2014-Oct-30 12:33N 50°43' E 001°21'1716.9
2014-Oct-30 11:33N 50°32' E 001°01'1716.5
2014-Oct-30 10:32N 50°26' E 000°36'4815.6
2014-Oct-30 07:27N 50°12' W 000°36'1612.4
2014-Oct-30 06:09N 50°08' W 001°00'3211.1
2014-Oct-30 03:14N 49°59' W 001°49'2913.7
2014-Oct-30 01:07N 49°52' W 002°33'1314.0
2014-Oct-30 00:10N 49°48' W 002°52'3114.5
2014-Oct-29 22:03N 49°33' W 003°34'1215.1
2014-Oct-29 21:15N 49°27' W 003°50'4515.4
2014-Oct-29 18:20N 49°04' W 004°49'1515.2
2014-Oct-29 17:23N 48°57' W 005°08'4213.0
2014-Oct-29 14:08N 48°22' W 005°44'814.7
2014-Oct-29 13:33N 48°14' W 005°39'1414.5
2014-Oct-29 12:33N 48°01' W 005°31'1414.2
2014-Oct-29 11:33N 47°49' W 005°17'1414.4
2014-Oct-29 10:33N 47°39' W 005°02'1414.3
2014-Oct-29 09:33N 47°29' W 004°47'1615.5
2014-Oct-29 08:33N 47°18' W 004°31'1615.7
2014-Oct-29 07:33N 47°07' W 004°14'1615.9
2014-Oct-29 06:33N 46°56' W 003°57'1615.9
2014-Oct-29 05:33N 46°45' W 003°41'1616.0
2014-Oct-29 04:33N 46°34' W 003°24'1616.0
2014-Oct-29 03:33N 46°23' W 003°07'1716.0
2014-Oct-29 02:31N 46°12' W 002°49'1616.1
2014-Oct-29 01:33N 46°01' W 002°33'1616.1
2014-Oct-29 00:33N 45°50' W 002°16'1616.1
2014-Oct-28 23:33N 45°44' W 001°55'1716.4
2014-Oct-28 22:32N 45°38' W 001°33'22 0.7
2014-Oct-27 14:19N 45°34' W 001°02'1114.5
2014-Oct-27 13:32N 45°38' W 001°17'1110.8
2014-Oct-27 12:33N 45°38' W 001°32'7 6.8
2014-Oct-27 11:28N 45°40' W 001°42'1 0.8
2014-Oct-27 10:31N 45°40' W 001°41'9 9.4
2014-Oct-27 09:33N 45°43' W 001°53'9 8.6
2014-Oct-27 08:33N 45°46' W 002°05'8 7.9
2014-Oct-27 07:33N 45°49' W 002°15'1313.2
2014-Oct-27 06:33N 45°58' W 002°29'1110.7
2014-Oct-27 05:33N 46°06' W 002°40'1110.9
2014-Oct-27 04:33N 46°13' W 002°52'1110.9
2014-Oct-27 03:33N 46°21' W 003°03'1212.2
2014-Oct-27 02:33N 46°29' W 003°16'1211.6
2014-Oct-27 01:32N 46°37' W 003°28'1212.3
2014-Oct-27 00:34N 46°46' W 003°41'7311.7
2014-Oct-26 18:20N 47°36' W 004°59'1211.8
2014-Oct-26 17:20N 47°44' W 005°11'147 9.9
2014-Oct-26 02:28N 49°50' W 003°15'12912.9
2014-Oct-25 16:26N 50°30' W 000°04'1313.9
2014-Oct-25 15:29N 50°34' E 000°16'1313.5
2014-Oct-25 14:33N 50°38' E 000°35'1312.7
2014-Oct-25 13:33N 50°45' E 000°51'1211.4
2014-Oct-25 12:33N 50°52' E 001°06'1110.7
2014-Oct-25 11:33N 50°59' E 001°18'1111.5
2014-Oct-25 10:34N 51°06' E 001°32'1413.7
2014-Oct-25 09:33N 51°15' E 001°49'1312.8
2014-Oct-25 08:33N 51°24' E 002°04'1212.3
2014-Oct-25 07:33N 51°21' E 002°24'1413.6
2014-Oct-25 06:32N 51°22' E 002°46'1616.1
2014-Oct-25 05:34N 51°24' E 003°11'1716.7
2014-Oct-25 04:34N 51°26' E 003°37'1312.8
2014-Oct-25 03:33N 51°25' E 003°58'1110.9
2014-Oct-25 02:34N 51°21' E 004°14'2 1.9
2014-Oct-25 01:34N 51°21' E 004°17'2 2.1
2014-Oct-25 00:32N 51°20' E 004°20'0 0.0
2014-Oct-24 23:32N 51°20' E 004°20'0 0.0
2014-Oct-24 22:26N 51°20' E 004°20'0 0.0
2014-Oct-24 21:32N 51°20' E 004°20'0 0.0
2014-Oct-24 20:32N 51°20' E 004°20'0 0.0
2014-Oct-24 19:32N 51°20' E 004°20'0 0.0
2014-Oct-24 18:29N 51°20' E 004°20'0 0.0
2014-Oct-24 17:29N 51°20' E 004°20'0 0.0
2014-Oct-24 16:32N 51°20' E 004°20'0 0.0
2014-Oct-24 15:32N 51°20' E 004°20'0 0.0
2014-Oct-24 14:29N 51°20' E 004°20'0 0.0
2014-Oct-24 13:32N 51°20' E 004°20'0 0.0
2014-Oct-24 12:32N 51°20' E 004°20'0 0.0
2014-Oct-24 11:29N 51°20' E 004°20'0 0.0
2014-Oct-24 10:32N 51°20' E 004°20'0 0.0
2014-Oct-24 09:30N 51°20' E 004°20'2 2.1
2014-Oct-24 08:34N 51°21' E 004°17'0 0.0
2014-Oct-24 07:34N 51°21' E 004°17'1 0.6
2014-Oct-24 06:33N 51°21' E 004°16'5 4.6
2014-Oct-24 05:34N 51°23' E 004°10'8 7.7
2014-Oct-24 04:33N 51°25' E 003°58'9 9.3
2014-Oct-24 03:33N 51°23' E 003°43'9 9.0
2014-Oct-24 02:33N 51°25' E 003°29'1313.2
2014-Oct-24 01:33N 51°24' E 003°08'1615.7
2014-Oct-24 00:33N 51°22' E 002°43'8 8.5
2014-Oct-23 23:33N 51°22' E 002°29'1313.4
2014-Oct-23 22:34N 51°15' E 002°10'1716.7
2014-Oct-23 21:34N 51°06' E 001°48'1211.5
2014-Oct-23 20:34N 51°03' E 002°06'4 4.0
2014-Oct-23 19:33N 51°01' E 002°11'0 0.0
2014-Oct-23 18:30N 51°01' E 002°11'0 0.0
2014-Oct-23 17:30N 51°01' E 002°11'0 0.0
2014-Oct-23 16:27N 51°01' E 002°11'0 0.0
2014-Oct-23 15:30N 51°01' E 002°11'0 0.0
2014-Oct-23 14:27N 51°01' E 002°11'0 0.0
2014-Oct-23 13:30N 51°01' E 002°11'0 0.0
2014-Oct-23 12:27N 51°01' E 002°11'0 0.0
2014-Oct-23 11:28N 51°01' E 002°11'4 4.0
2014-Oct-23 10:34N 51°03' E 002°07'1514.7
2014-Oct-23 09:33N 51°01' E 001°44'1414.4
2014-Oct-23 08:33N 50°50' E 001°28'2914.2
2014-Oct-23 06:31N 50°30' E 000°55'1414.7
2014-Oct-23 05:32N 50°25' E 000°34'7214.5
2014-Oct-23 00:32N 50°05' W 001°15'1514.0
2014-Oct-22 23:29N 50°01' W 001°37'1314.4
2014-Oct-22 22:33N 49°58' W 001°57'1615.7
2014-Oct-22 21:31N 49°54' W 002°22'3216.5
2014-Oct-22 19:33N 49°43' W 003°09'  

Dump ship's entire track history